createdAt,value
2022-12-05T00:00:29.410Z,13.27
2022-12-05T00:02:31.561Z,12.98
2022-12-05T00:04:33.750Z,12.50
2022-12-05T00:06:36.933Z,13.93
2022-12-05T00:08:39.456Z,13.73
2022-12-05T00:10:41.549Z,12.70
2022-12-05T00:12:43.605Z,12.88
2022-12-05T00:14:45.649Z,13.45
2022-12-05T00:16:48.051Z,13.63
2022-12-05T00:18:50.968Z,13.65
2022-12-05T00:20:52.928Z,13.65
2022-12-05T00:22:55.019Z,13.68
2022-12-05T00:24:57.092Z,12.00
2022-12-05T00:26:59.179Z,13.40
2022-12-05T00:29:01.320Z,12.43
2022-12-05T00:31:13.530Z,13.38
2022-12-05T00:33:15.650Z,13.48
2022-12-05T00:35:17.844Z,13.55
2022-12-05T00:37:19.950Z,12.70
2022-12-05T00:39:22.036Z,12.55
2022-12-05T00:41:27.099Z,13.88
2022-12-05T00:43:29.197Z,12.63
2022-12-05T00:45:31.296Z,13.32
2022-12-05T00:47:37.303Z,14.85
2022-12-05T00:49:39.249Z,13.40
2022-12-05T00:51:43.100Z,15.85
2022-12-05T00:53:46.349Z,13.65
2022-12-05T00:55:48.311Z,14.82
2022-12-05T00:57:50.347Z,13.75
2022-12-05T00:59:52.411Z,13.40
2022-12-05T01:01:54.571Z,13.50
2022-12-05T01:03:58.168Z,15.10
2022-12-05T01:06:00.570Z,15.55
2022-12-05T01:08:02.709Z,13.95
2022-12-05T01:10:05.884Z,14.27
2022-12-05T01:12:08.370Z,14.15
2022-12-05T01:14:12.700Z,13.57
2022-12-05T01:16:18.945Z,12.63
2022-12-05T01:18:22.770Z,13.15
2022-12-05T01:20:24.760Z,14.07
2022-12-05T01:22:26.812Z,14.13
2022-12-05T01:24:30.308Z,13.82
2022-12-05T01:26:32.579Z,14.27
2022-12-05T01:28:35.976Z,14.35
2022-12-05T01:30:40.028Z,12.80
2022-12-05T01:32:42.470Z,13.32
2022-12-05T01:34:44.820Z,14.00
2022-12-05T01:36:47.620Z,14.63
2022-12-05T01:38:50.509Z,14.23
2022-12-05T01:41:01.178Z,12.98
2022-12-05T01:43:03.828Z,13.43
2022-12-05T01:45:22.989Z,13.82
2022-12-05T01:47:28.297Z,14.10
2022-12-05T01:49:36.531Z,15.18
2022-12-05T01:51:41.827Z,13.90
2022-12-05T01:53:43.890Z,14.15
2022-12-05T01:55:48.379Z,13.63
2022-12-05T01:57:50.792Z,13.27
2022-12-05T02:00:00.043Z,13.15
2022-12-05T02:02:03.520Z,13.98
2022-12-05T02:04:06.540Z,13.70
2022-12-05T02:06:09.857Z,13.88
2022-12-05T02:08:12.438Z,13.85
2022-12-05T02:10:15.250Z,15.30
2022-12-05T02:12:20.398Z,14.38
2022-12-05T02:14:32.377Z,13.63
2022-12-05T02:16:47.306Z,13.85
2022-12-05T02:19:08.536Z,14.30
2022-12-05T02:21:20.048Z,13.98
2022-12-05T02:23:36.611Z,13.73
2022-12-05T02:25:57.671Z,13.73
2022-12-05T02:28:10.630Z,13.68
2022-12-05T02:30:19.925Z,14.55
2022-12-05T02:32:31.455Z,14.63
2022-12-05T02:34:45.545Z,14.65
2022-12-05T02:36:55.284Z,13.80
2022-12-05T02:39:11.609Z,14.05
2022-12-05T02:41:19.474Z,13.93
2022-12-05T02:43:36.624Z,13.38
2022-12-05T02:45:41.601Z,13.07
2022-12-05T02:47:47.830Z,13.98
2022-12-05T02:49:53.095Z,13.82
2022-12-05T02:51:59.074Z,13.07
2022-12-05T02:54:04.730Z,13.93
2022-12-05T02:56:07.834Z,13.55
2022-12-05T02:58:15.289Z,12.73
2022-12-05T03:00:17.629Z,13.77
2022-12-05T03:02:28.427Z,12.48
2022-12-05T03:04:31.806Z,14.18
2022-12-05T03:06:39.585Z,12.35
2022-12-05T03:08:48.779Z,12.90
2022-12-05T03:10:53.015Z,12.88
2022-12-05T03:13:04.069Z,12.43
2022-12-05T03:15:15.673Z,13.48
2022-12-05T03:17:23.299Z,13.10
2022-12-05T03:19:37.979Z,12.60
2022-12-05T03:21:50.229Z,12.15
2022-12-05T03:23:58.445Z,11.57
2022-12-05T03:26:14.669Z,11.70
2022-12-05T03:28:25.524Z,11.13
2022-12-05T03:32:42.485Z,10.65
2022-12-05T03:35:01.490Z,11.32
2022-12-05T03:37:10.822Z,11.63
2022-12-05T03:39:23.924Z,12.38
2022-12-05T03:41:34.981Z,11.50
2022-12-05T03:43:47.841Z,12.13
2022-12-05T03:45:53.252Z,12.93
2022-12-05T03:48:10.211Z,10.77
2022-12-05T03:50:19.199Z,12.38
2022-12-05T03:52:29.195Z,13.55
2022-12-05T03:54:38.175Z,12.50
2022-12-05T03:56:46.829Z,12.50
2022-12-05T03:58:55.589Z,13.63
2022-12-05T04:01:01.789Z,13.40
2022-12-05T04:03:08.571Z,13.50
2022-12-05T04:05:16.674Z,12.60
2022-12-05T04:07:20.604Z,13.02
2022-12-05T04:09:28.884Z,12.27
2022-12-05T04:11:34.779Z,11.45
2022-12-05T04:13:44.522Z,11.77
2022-12-05T04:16:03.395Z,12.40
2022-12-05T04:18:06.799Z,11.60
2022-12-05T04:20:19.319Z,12.10
2022-12-05T04:22:22.666Z,12.43
2022-12-05T04:24:39.285Z,12.65
2022-12-05T04:26:50.169Z,11.85
2022-12-05T04:31:09.759Z,11.40
2022-12-05T04:33:16.114Z,12.02
2022-12-05T04:35:26.469Z,12.07
2022-12-05T04:37:34.224Z,11.70
2022-12-05T04:39:44.389Z,11.57
2022-12-05T04:41:52.860Z,13.25
2022-12-05T04:43:59.268Z,13.40
2022-12-05T04:46:06.340Z,11.45
2022-12-05T04:48:13.394Z,11.25
2022-12-05T04:50:17.884Z,12.13
2022-12-05T04:52:20.036Z,12.07
2022-12-05T04:54:28.373Z,10.52
2022-12-05T04:56:34.599Z,10.68
2022-12-05T04:58:36.482Z,11.25
2022-12-05T05:00:48.852Z,11.90
2022-12-05T05:02:51.581Z,10.77
2022-12-05T05:04:58.043Z,11.30
2022-12-05T05:07:00.081Z,11.32
2022-12-05T05:09:01.891Z,10.90
2022-12-05T05:11:15.566Z,11.95
2022-12-05T05:13:17.314Z,11.15
2022-12-05T05:15:19.184Z,12.57
2022-12-05T05:17:20.987Z,11.20
2022-12-05T05:19:23.314Z,9.93
2022-12-05T05:21:31.295Z,11.15
2022-12-05T05:23:33.014Z,9.88
2022-12-05T05:25:34.909Z,10.63
2022-12-05T05:27:36.699Z,10.07
2022-12-05T05:29:38.440Z,10.77
2022-12-05T05:31:41.214Z,9.27
2022-12-05T05:33:43.072Z,9.85
2022-12-05T05:35:44.825Z,9.80
2022-12-05T05:37:46.645Z,9.63
2022-12-05T05:39:48.394Z,9.40
2022-12-05T05:41:50.269Z,10.40
2022-12-05T05:43:52.885Z,10.13
2022-12-05T05:45:54.709Z,9.85
2022-12-05T05:47:56.499Z,10.15
2022-12-05T05:49:58.594Z,10.43
2022-12-05T05:52:00.633Z,9.60
2022-12-05T05:54:02.472Z,10.63
2022-12-05T05:56:05.879Z,10.57
2022-12-05T05:58:08.674Z,9.40
2022-12-05T06:00:11.464Z,9.98
2022-12-05T06:02:13.253Z,10.10
2022-12-05T06:04:15.133Z,9.27
2022-12-05T06:06:17.339Z,9.38
2022-12-05T06:08:19.112Z,9.30
2022-12-05T06:10:21.034Z,9.50
2022-12-05T06:12:23.324Z,9.32
2022-12-05T06:14:25.119Z,9.60
2022-12-05T06:16:26.959Z,8.95
2022-12-05T06:18:28.792Z,10.05
2022-12-05T06:20:30.635Z,10.30
2022-12-05T06:22:32.624Z,9.85
2022-12-05T06:24:34.405Z,8.57
2022-12-05T06:26:36.144Z,9.20
2022-12-05T06:28:39.532Z,8.38
2022-12-05T06:30:41.295Z,9.32
2022-12-05T06:32:43.086Z,9.00
2022-12-05T06:34:44.880Z,8.63
2022-12-05T06:36:46.620Z,8.45
2022-12-05T06:38:49.198Z,8.10
2022-12-05T06:40:50.995Z,8.88
2022-12-05T06:42:52.747Z,8.45
2022-12-05T06:44:54.489Z,9.02
2022-12-05T06:46:56.660Z,8.50
2022-12-05T06:48:59.527Z,8.65
2022-12-05T06:51:01.408Z,8.13
2022-12-05T06:53:03.209Z,9.05
2022-12-05T06:55:05.907Z,8.98
2022-12-05T06:57:07.744Z,9.52
2022-12-05T06:59:09.650Z,7.95
2022-12-05T07:01:23.570Z,8.63
2022-12-05T07:03:25.602Z,8.43
2022-12-05T07:05:27.424Z,7.78
2022-12-05T07:07:30.136Z,7.60
2022-12-05T07:09:41.412Z,7.78
2022-12-05T07:11:43.205Z,7.47
2022-12-05T07:13:45.247Z,6.97
2022-12-05T07:15:48.299Z,7.28
2022-12-05T07:17:50.060Z,7.13
2022-12-05T07:19:53.413Z,7.78
2022-12-05T07:21:55.300Z,7.60
2022-12-05T07:23:57.164Z,7.57
2022-12-05T07:25:59.049Z,7.53
2022-12-05T07:28:00.944Z,7.63
2022-12-05T07:30:02.980Z,8.40
2022-12-05T07:32:05.092Z,8.02
2022-12-05T07:34:06.965Z,8.75
2022-12-05T07:36:12.440Z,7.85
2022-12-05T07:38:14.259Z,6.75
2022-12-05T07:40:16.474Z,7.35
2022-12-05T07:42:18.386Z,7.00
2022-12-05T07:44:20.220Z,7.30
2022-12-05T07:46:23.026Z,7.70
2022-12-05T07:48:24.905Z,7.13
2022-12-05T07:50:26.751Z,8.27
2022-12-05T07:52:28.729Z,7.70
2022-12-05T07:54:30.632Z,7.00
2022-12-05T07:56:32.645Z,7.90
2022-12-05T07:58:35.937Z,6.47
2022-12-05T08:00:37.805Z,8.05
2022-12-05T08:02:40.920Z,8.00
2022-12-05T08:04:43.125Z,7.32
2022-12-05T08:06:44.950Z,7.47
2022-12-05T08:08:50.280Z,7.50
2022-12-05T08:10:52.315Z,7.65
2022-12-05T08:12:54.215Z,7.53
2022-12-05T08:14:56.077Z,7.53
2022-12-05T08:16:58.109Z,9.15
2022-12-05T08:19:03.341Z,8.18
2022-12-05T08:21:07.517Z,7.47
2022-12-05T08:23:09.460Z,7.40
2022-12-05T08:25:11.438Z,8.13
2022-12-05T08:27:13.354Z,7.53
2022-12-05T08:29:16.150Z,7.80
2022-12-05T08:31:19.973Z,8.05
2022-12-05T08:33:22.054Z,8.48
2022-12-05T08:35:24.015Z,7.22
2022-12-05T08:37:25.854Z,6.70
2022-12-05T08:39:27.825Z,7.03
2022-12-05T08:41:30.488Z,7.50
2022-12-05T08:43:32.959Z,8.60
2022-12-05T08:45:34.925Z,7.53
2022-12-05T08:47:37.300Z,7.50
2022-12-05T08:49:39.261Z,8.10
2022-12-05T08:51:42.345Z,7.80
2022-12-05T08:53:44.984Z,7.22
2022-12-05T08:55:47.498Z,8.02
2022-12-05T08:57:49.384Z,7.90
2022-12-05T08:59:51.310Z,7.93
2022-12-05T09:01:53.344Z,7.72
2022-12-05T09:03:55.339Z,7.50
2022-12-05T09:06:07.676Z,7.47
2022-12-05T09:08:09.694Z,7.40
2022-12-05T09:10:11.715Z,7.38
2022-12-05T09:12:15.004Z,7.90
2022-12-05T09:14:17.842Z,7.90
2022-12-05T09:16:23.241Z,7.68
2022-12-05T09:18:25.175Z,8.57
2022-12-05T09:20:27.020Z,8.35
2022-12-05T09:22:28.933Z,8.07
2022-12-05T09:24:30.860Z,8.00
2022-12-05T09:26:32.935Z,7.22
2022-12-05T09:28:35.534Z,7.90
2022-12-05T09:30:37.856Z,7.97
2022-12-05T09:32:39.801Z,8.23
2022-12-05T09:34:41.674Z,9.02
2022-12-05T09:36:44.130Z,8.45
2022-12-05T09:38:46.965Z,7.75
2022-12-05T09:41:00.929Z,8.25
2022-12-05T09:43:08.615Z,7.85
2022-12-05T09:45:34.583Z,8.07
2022-12-05T09:47:46.046Z,7.05
2022-12-05T09:49:54.000Z,7.80
2022-12-05T09:51:58.384Z,7.78
2022-12-05T09:54:00.335Z,7.78
2022-12-05T09:56:09.859Z,7.88
2022-12-05T09:58:18.874Z,7.22
2022-12-05T10:00:21.254Z,8.10
2022-12-05T10:02:23.674Z,6.80
2022-12-05T10:04:35.099Z,7.18
2022-12-05T10:06:56.838Z,7.68
2022-12-05T10:09:19.780Z,6.60
2022-12-05T10:11:34.389Z,7.03
2022-12-05T10:13:54.279Z,6.65
2022-12-05T10:16:01.007Z,6.93
2022-12-05T10:18:11.076Z,7.15
2022-12-05T10:20:19.374Z,7.43
2022-12-05T10:22:29.934Z,6.72
2022-12-05T10:24:32.239Z,6.93
2022-12-05T10:26:41.961Z,6.53
2022-12-05T10:29:02.566Z,6.63
2022-12-05T10:31:10.269Z,7.55
2022-12-05T10:33:18.979Z,6.65
2022-12-05T10:35:21.385Z,6.93
2022-12-05T10:37:24.516Z,6.95
2022-12-05T10:39:27.425Z,7.20
2022-12-05T10:41:29.460Z,6.50
2022-12-05T10:43:33.715Z,5.97
2022-12-05T10:45:42.176Z,6.28
2022-12-05T10:47:44.750Z,6.75
2022-12-05T10:49:47.356Z,5.82
2022-12-05T10:51:50.730Z,5.93
2022-12-05T10:53:54.496Z,6.35
2022-12-05T10:56:28.740Z,6.25
2022-12-05T10:58:24.239Z,6.65
2022-12-05T11:00:30.693Z,5.57
2022-12-05T11:02:34.557Z,5.68
2022-12-05T11:04:45.322Z,5.80
2022-12-05T11:09:04.566Z,5.55
2022-12-05T11:11:18.045Z,5.53
2022-12-05T11:13:26.237Z,7.15
2022-12-05T11:15:31.101Z,5.93
2022-12-05T11:17:37.776Z,5.50
2022-12-05T11:19:39.936Z,6.32
2022-12-05T11:21:43.895Z,5.57
2022-12-05T11:23:46.601Z,6.55
2022-12-05T11:25:49.109Z,5.22
2022-12-05T11:27:51.160Z,5.63
2022-12-05T11:29:56.222Z,6.15
2022-12-05T11:31:58.496Z,5.80
2022-12-05T11:34:13.811Z,6.05
2022-12-05T11:36:22.641Z,6.53
2022-12-05T11:38:28.483Z,6.00
2022-12-05T11:40:45.681Z,6.68
2022-12-05T11:43:05.599Z,5.78
2022-12-05T11:45:26.275Z,5.82
2022-12-05T11:47:47.586Z,5.80
2022-12-05T11:50:00.076Z,5.57
2022-12-05T11:52:18.661Z,5.95
2022-12-05T11:54:56.821Z,5.82
2022-12-05T11:56:57.556Z,5.28
2022-12-05T11:59:09.802Z,5.93
2022-12-05T12:01:27.505Z,5.78
2022-12-05T12:03:38.917Z,6.38
2022-12-05T12:05:49.315Z,5.95
2022-12-05T12:08:12.374Z,5.97
2022-12-05T12:10:42.543Z,5.32
2022-12-05T12:12:54.223Z,5.73
2022-12-05T12:15:15.565Z,6.10
2022-12-05T12:17:40.597Z,5.55
2022-12-05T12:20:02.635Z,4.97
2022-12-05T12:22:15.081Z,5.32
2022-12-05T12:24:29.187Z,5.18
2022-12-05T12:26:40.941Z,5.20
2022-12-05T12:28:55.708Z,6.03
2022-12-05T12:31:06.156Z,5.57
2022-12-05T12:33:26.842Z,5.30
2022-12-05T12:35:33.297Z,4.93
2022-12-05T12:37:54.240Z,4.90
2022-12-05T12:42:18.645Z,5.18
2022-12-05T12:44:39.766Z,4.85
2022-12-05T12:46:52.290Z,5.18
2022-12-05T12:49:16.654Z,5.38
2022-12-05T12:51:19.409Z,5.20
2022-12-05T12:53:38.661Z,4.93
2022-12-05T12:55:41.267Z,5.70
2022-12-05T12:58:02.711Z,4.40
2022-12-05T13:00:23.699Z,5.25
2022-12-05T13:04:45.192Z,4.85
2022-12-05T13:06:58.413Z,4.95
2022-12-05T13:09:03.919Z,4.50
2022-12-05T13:11:10.734Z,4.82
2022-12-05T13:13:19.057Z,4.93
2022-12-05T13:15:31.904Z,4.30
2022-12-05T13:17:34.415Z,4.88
2022-12-05T13:19:48.988Z,4.65
2022-12-05T13:21:52.136Z,4.85
2022-12-05T13:24:03.557Z,5.35
2022-12-05T13:26:10.776Z,3.97
2022-12-05T13:28:32.182Z,3.95
2022-12-05T13:30:56.432Z,3.85
2022-12-05T13:33:05.097Z,4.13
2022-12-05T13:35:07.662Z,3.70
2022-12-05T13:37:27.444Z,3.20
2022-12-05T13:39:39.477Z,3.58
2022-12-05T13:41:55.393Z,4.13
2022-12-05T13:44:06.307Z,3.85
2022-12-05T13:46:14.003Z,2.83
2022-12-05T13:48:23.337Z,3.97
2022-12-05T13:50:33.407Z,3.78
2022-12-05T13:52:48.596Z,3.85
2022-12-05T13:55:07.064Z,3.47
2022-12-05T13:57:45.596Z,3.75
2022-12-05T14:00:00.292Z,3.13
2022-12-05T14:02:02.759Z,3.50
2022-12-05T14:04:23.695Z,3.00
2022-12-05T14:06:56.358Z,3.65
2022-12-05T14:08:58.619Z,2.28
2022-12-05T14:11:01.642Z,3.30
2022-12-05T14:13:24.029Z,2.60
2022-12-05T14:15:38.131Z,2.83
2022-12-05T14:17:45.382Z,2.50
2022-12-05T14:19:53.231Z,2.25
2022-12-05T14:22:14.476Z,3.22
2022-12-05T14:24:33.491Z,3.10
2022-12-05T14:26:51.724Z,3.22
2022-12-05T14:29:00.955Z,3.20
2022-12-05T14:31:13.780Z,2.35
2022-12-05T14:33:18.269Z,3.63
2022-12-05T14:35:24.865Z,3.33
2022-12-05T14:37:32.050Z,2.75
2022-12-05T14:39:50.414Z,3.13
2022-12-05T14:41:58.718Z,2.80
2022-12-05T14:44:08.190Z,3.17
2022-12-05T14:46:25.124Z,3.13
2022-12-05T14:48:31.419Z,3.35
2022-12-05T14:50:36.374Z,3.00
2022-12-05T14:52:41.298Z,2.70
2022-12-05T14:54:44.458Z,2.70
2022-12-05T14:56:53.243Z,3.22
2022-12-05T14:59:00.840Z,2.60
2022-12-05T15:01:09.567Z,3.05
2022-12-05T15:03:25.519Z,3.10
2022-12-05T15:05:33.515Z,3.67
2022-12-05T15:07:39.621Z,2.58
2022-12-05T15:09:55.335Z,3.22
2022-12-05T15:12:02.409Z,2.47
2022-12-05T15:14:09.274Z,2.95
2022-12-05T15:16:20.412Z,2.80
2022-12-05T15:18:31.007Z,2.00
2022-12-05T15:20:47.212Z,2.55
2022-12-05T15:22:49.880Z,2.53
2022-12-05T15:24:52.536Z,2.00
2022-12-05T15:26:56.794Z,2.92
2022-12-05T15:29:09.053Z,2.40
2022-12-05T15:31:14.519Z,2.63
2022-12-05T15:33:17.850Z,2.40
2022-12-05T15:35:24.297Z,2.72
2022-12-05T15:37:47.650Z,2.95
2022-12-05T15:39:52.648Z,2.42
2022-12-05T15:41:56.876Z,2.10
2022-12-05T15:44:00.323Z,2.47
2022-12-05T15:46:26.299Z,2.85
2022-12-05T15:48:28.666Z,2.70
2022-12-05T15:50:39.808Z,2.88
2022-12-05T15:52:48.578Z,2.65
2022-12-05T15:54:54.262Z,2.35
2022-12-05T15:57:20.411Z,3.78
2022-12-05T15:59:29.844Z,4.90
2022-12-05T16:01:38.728Z,2.78
2022-12-05T16:03:48.994Z,3.00
2022-12-05T16:06:05.070Z,2.30
2022-12-05T16:08:10.021Z,2.42
2022-12-05T16:10:14.761Z,2.05
2022-12-05T16:12:28.006Z,2.60
2022-12-05T16:17:01.957Z,1.98
2022-12-05T16:19:13.553Z,2.33
2022-12-05T16:21:38.493Z,2.17
2022-12-05T16:23:44.753Z,2.20
2022-12-05T16:25:47.690Z,2.00
2022-12-05T16:28:01.432Z,2.30
2022-12-05T16:30:14.273Z,2.10
2022-12-05T16:32:25.103Z,2.50
2022-12-05T16:36:32.973Z,1.88
2022-12-05T16:38:37.293Z,1.75
2022-12-05T16:40:43.741Z,1.92
2022-12-05T16:42:46.726Z,2.20
2022-12-05T16:44:50.361Z,2.45
2022-12-05T16:46:54.060Z,1.90
2022-12-05T16:49:16.251Z,2.10
2022-12-05T16:51:26.666Z,2.00
2022-12-05T16:53:34.016Z,2.20
2022-12-05T16:55:39.326Z,2.22
2022-12-05T16:57:42.173Z,2.13
2022-12-05T16:59:49.231Z,2.15
2022-12-05T17:01:51.955Z,2.63
2022-12-05T17:03:56.675Z,2.45
2022-12-05T17:06:00.476Z,2.05
2022-12-05T17:08:04.395Z,1.95
2022-12-05T17:10:08.693Z,2.35
2022-12-05T17:12:19.429Z,1.90
2022-12-05T17:16:27.181Z,1.95
2022-12-05T17:18:32.042Z,2.30
2022-12-05T17:20:35.635Z,2.05
2022-12-05T17:22:38.565Z,2.03
2022-12-05T17:24:41.499Z,2.33
2022-12-05T17:26:45.264Z,2.58
2022-12-05T17:28:49.140Z,2.42
2022-12-05T17:30:53.997Z,2.22
2022-12-05T17:33:00.475Z,2.05
2022-12-05T17:35:06.780Z,2.80
2022-12-05T17:37:10.286Z,3.08
2022-12-05T17:39:13.357Z,2.55
2022-12-05T17:41:20.687Z,2.97
2022-12-05T17:43:25.449Z,2.88
2022-12-05T17:45:28.939Z,2.78
2022-12-05T17:47:32.040Z,2.70
2022-12-05T17:49:34.736Z,2.95
2022-12-05T17:51:52.572Z,2.65
2022-12-05T17:54:02.268Z,2.47
2022-12-05T17:56:06.120Z,3.15
2022-12-05T17:58:10.873Z,2.67
2022-12-05T18:00:16.296Z,2.53
2022-12-05T18:02:21.140Z,2.47
2022-12-05T18:04:24.493Z,2.75
2022-12-05T18:06:29.470Z,3.20
2022-12-05T18:08:32.330Z,2.75
2022-12-05T18:10:36.659Z,2.95
2022-12-05T18:12:39.447Z,2.30
2022-12-05T18:14:41.848Z,2.85
2022-12-05T18:16:44.739Z,2.85
2022-12-05T18:18:47.567Z,2.90
2022-12-05T18:20:50.440Z,2.70
2022-12-05T18:22:53.118Z,2.75
2022-12-05T18:24:57.754Z,2.78
2022-12-05T18:27:00.889Z,2.25
2022-12-05T18:29:04.367Z,2.63
2022-12-05T18:31:10.550Z,2.03
2022-12-05T18:33:17.306Z,2.53
2022-12-05T18:35:39.806Z,3.17
2022-12-05T18:37:42.379Z,3.13
2022-12-05T18:39:46.239Z,2.95
2022-12-05T18:41:49.006Z,2.65
2022-12-05T18:43:52.200Z,3.25
2022-12-05T18:45:58.343Z,3.10
2022-12-05T18:48:23.521Z,2.78
2022-12-05T18:50:24.934Z,2.25
2022-12-05T18:52:27.739Z,3.33
2022-12-05T18:54:30.582Z,3.30
2022-12-05T18:56:35.937Z,2.90
2022-12-05T18:58:39.480Z,3.13
2022-12-05T19:00:42.512Z,3.60
2022-12-05T19:02:45.245Z,3.17
2022-12-05T19:04:48.677Z,3.30
2022-12-05T19:06:55.611Z,2.85
2022-12-05T19:09:01.794Z,3.00
2022-12-05T19:11:05.941Z,4.10
2022-12-05T19:13:08.762Z,3.08
2022-12-05T19:15:12.372Z,2.83
2022-12-05T19:17:15.133Z,3.15
2022-12-05T19:19:18.418Z,3.40
2022-12-05T19:21:20.961Z,3.10
2022-12-05T19:23:24.328Z,3.00
2022-12-05T19:25:26.906Z,2.50
2022-12-05T19:27:31.932Z,2.38
2022-12-05T19:29:34.434Z,2.97
2022-12-05T19:31:37.018Z,2.80
2022-12-05T19:33:42.110Z,2.97
2022-12-05T19:35:44.639Z,2.33
2022-12-05T19:37:48.384Z,3.40
2022-12-05T19:39:52.348Z,3.72
2022-12-05T19:41:57.920Z,2.85
2022-12-05T19:44:01.751Z,3.50
2022-12-05T19:46:07.936Z,3.38
2022-12-05T19:48:10.580Z,4.35
2022-12-05T19:50:13.118Z,3.33
2022-12-05T19:52:19.294Z,3.72
2022-12-05T19:54:24.640Z,3.35
2022-12-05T19:56:28.918Z,3.05
2022-12-05T19:58:34.858Z,3.05
2022-12-05T20:00:37.660Z,2.83
2022-12-05T20:02:40.607Z,3.20
2022-12-05T20:04:43.726Z,3.00
2022-12-05T20:06:49.616Z,3.33
2022-12-05T20:08:53.947Z,2.80
2022-12-05T20:10:56.475Z,2.53
2022-12-05T20:13:00.572Z,3.35
2022-12-05T20:15:06.066Z,3.45
2022-12-05T20:17:08.476Z,3.63
2022-12-05T20:19:11.795Z,3.67
2022-12-05T20:21:18.125Z,3.65
2022-12-05T20:23:20.601Z,3.47
2022-12-05T20:25:23.094Z,2.92
2022-12-05T20:27:25.860Z,3.10
2022-12-05T20:29:28.630Z,3.58
2022-12-05T20:31:35.737Z,2.88
2022-12-05T20:33:39.426Z,2.63
2022-12-05T20:35:42.644Z,2.92
2022-12-05T20:37:45.537Z,4.30
2022-12-05T20:39:50.420Z,3.10
2022-12-05T20:41:53.117Z,3.20
2022-12-05T20:43:58.571Z,3.42
2022-12-05T20:46:13.020Z,3.53
2022-12-05T20:48:15.704Z,3.42
2022-12-05T20:50:18.871Z,3.50
2022-12-05T20:52:21.307Z,3.20
2022-12-05T20:54:23.862Z,3.30
2022-12-05T20:56:29.888Z,3.25
2022-12-05T20:58:32.574Z,3.30
2022-12-05T21:00:35.011Z,2.72
2022-12-05T21:02:37.651Z,2.85
2022-12-05T21:04:41.472Z,2.90
2022-12-05T21:06:47.017Z,2.78
2022-12-05T21:08:50.755Z,2.95
2022-12-05T21:10:56.296Z,3.25
2022-12-05T21:13:01.768Z,3.63
2022-12-05T21:15:04.892Z,2.92
2022-12-05T21:17:07.453Z,2.80
2022-12-05T21:19:10.135Z,2.70
2022-12-05T21:21:16.176Z,2.78
2022-12-05T21:23:18.746Z,2.42
2022-12-05T21:25:22.348Z,3.55
2022-12-05T21:27:24.890Z,2.20
2022-12-05T21:29:27.541Z,2.47
2022-12-05T21:31:34.613Z,2.72
2022-12-05T21:33:37.195Z,2.60
2022-12-05T21:35:39.671Z,2.22
2022-12-05T21:37:41.945Z,2.20
2022-12-05T21:39:44.534Z,3.08
2022-12-05T21:41:47.300Z,2.25
2022-12-05T21:43:54.606Z,2.38
2022-12-05T21:45:57.980Z,2.25
2022-12-05T21:48:00.665Z,3.30
2022-12-05T21:50:03.415Z,3.13
2022-12-05T21:52:05.960Z,2.63
2022-12-05T21:54:08.851Z,2.42
2022-12-05T21:56:16.447Z,2.83
2022-12-05T21:58:18.740Z,2.42
2022-12-05T22:00:20.963Z,2.30
2022-12-05T22:02:23.414Z,2.65
2022-12-05T22:04:25.976Z,2.50
2022-12-05T22:06:31.434Z,2.90
2022-12-05T22:08:34.510Z,2.67
2022-12-05T22:10:37.275Z,3.20
2022-12-05T22:12:40.125Z,2.70
2022-12-05T22:14:42.865Z,2.90
2022-12-05T22:16:45.274Z,2.50
2022-12-05T22:18:48.207Z,2.25
2022-12-05T22:21:01.555Z,2.40
2022-12-05T22:23:03.930Z,2.67
2022-12-05T22:25:06.849Z,2.38
2022-12-05T22:27:09.136Z,2.65
2022-12-05T22:29:11.421Z,2.72
2022-12-05T22:31:15.730Z,2.03
2022-12-05T22:33:18.317Z,2.25
2022-12-05T22:35:20.509Z,2.53
2022-12-05T22:37:22.804Z,2.35
2022-12-05T22:39:25.388Z,2.55
2022-12-05T22:41:27.742Z,2.00
2022-12-05T22:43:32.051Z,1.77
2022-12-05T22:45:36.076Z,1.63
2022-12-05T22:47:38.114Z,2.10
2022-12-05T22:49:40.176Z,1.70
2022-12-05T22:51:42.277Z,1.58
2022-12-05T22:53:45.499Z,1.77
2022-12-05T22:55:47.904Z,1.77
2022-12-05T22:57:49.848Z,1.70
2022-12-05T22:59:51.803Z,1.77
2022-12-05T23:01:53.735Z,1.92
2022-12-05T23:03:59.189Z,1.70
2022-12-05T23:06:11.240Z,1.80
2022-12-05T23:08:14.343Z,1.85
2022-12-05T23:10:16.685Z,1.95
2022-12-05T23:12:19.196Z,2.10
2022-12-05T23:14:21.473Z,2.03
2022-12-05T23:16:26.721Z,1.50
2022-12-05T23:18:29.055Z,0.93
2022-12-05T23:20:31.110Z,1.70
2022-12-05T23:22:35.315Z,1.75
2022-12-05T23:24:37.495Z,1.75
2022-12-05T23:26:44.576Z,1.90
2022-12-05T23:28:46.761Z,1.33
2022-12-05T23:30:48.883Z,2.08
2022-12-05T23:32:51.184Z,1.35
2022-12-05T23:34:53.334Z,1.40
2022-12-05T23:36:55.545Z,1.48
2022-12-05T23:38:57.725Z,1.55
2022-12-05T23:41:01.375Z,1.20
2022-12-05T23:43:04.515Z,1.50
2022-12-05T23:45:07.875Z,2.22
2022-12-05T23:47:10.046Z,2.03
2022-12-05T23:49:12.240Z,1.30
2022-12-05T23:51:16.809Z,1.42
2022-12-05T23:53:18.957Z,2.10
2022-12-05T23:55:21.136Z,2.15
2022-12-05T23:57:23.394Z,1.65
2022-12-05T23:59:25.483Z,1.55
